Salt Lake City, Utah
Traffic Map
Current Weather Conditions
Salt Lake City, Utah
Few Clouds
Few Clouds
10°
Feels Like: 10°
Wind Chill: 10° Ceiling: Unl
Heat Index: 10° Visibility: 10mi
Dew Point: Wind: 10mph
Humidity: 61% Direction: 130° (SE)
Pressure: 30.29in Gusts: 0mph
Raw Report DataKSLC 021553Z 13009KT 10SM FEW050 FEW110 FEW200 10/03 A3029 RMK AO2 SLP245 ACSL DSNT E T01000028
Traffic Incident Summary
Active as of:
Severity:
Category:
InformationThere was an issue retrieving the traffic information for this location. Please try a different location or try again shortly.
Advertisements
Track Severe Weather on mobile